sensor_id;sensor_type;location;lat;lon;timestamp;temperature;humidity
39825;DHT22;25503;52.532;13.640;2023-05-18T00:01:32;8.50;99.90
39825;DHT22;25503;52.532;13.640;2023-05-18T00:03:58;8.50;99.90
39825;DHT22;25503;52.532;13.640;2023-05-18T00:06:23;8.40;99.90
39825;DHT22;25503;52.532;13.640;2023-05-18T00:08:52;8.40;99.90
39825;DHT22;25503;52.532;13.640;2023-05-18T00:11:17;8.40;99.90
39825;DHT22;25503;52.532;13.640;2023-05-18T00:13:43;8.30;99.90
39825;DHT22;25503;52.532;13.640;2023-05-18T00:16:09;8.30;99.90
39825;DHT22;25503;52.532;13.640;2023-05-18T00:18:36;8.30;99.90
39825;DHT22;25503;52.532;13.640;2023-05-18T00:21:02;8.30;99.90
39825;DHT22;25503;52.532;13.640;2023-05-18T00:23:29;8.30;99.90
39825;DHT22;25503;52.532;13.640;2023-05-18T00:25:56;8.20;99.90
39825;DHT22;25503;52.532;13.640;2023-05-18T00:28:22;8.20;99.90
39825;DHT22;25503;52.532;13.640;2023-05-18T00:30:48;8.20;99.90
39825;DHT22;25503;52.532;13.640;2023-05-18T00:33:13;8.20;99.90
39825;DHT22;25503;52.532;13.640;2023-05-18T00:35:39;8.10;99.90
39825;DHT22;25503;52.532;13.640;2023-05-18T00:38:05;8.10;99.90
39825;DHT22;25503;52.532;13.640;2023-05-18T00:40:30;8.10;99.90
39825;DHT22;25503;52.532;13.640;2023-05-18T00:42:56;8.00;99.90
39825;DHT22;25503;52.532;13.640;2023-05-18T00:45:22;8.00;99.90
39825;DHT22;25503;52.532;13.640;2023-05-18T00:47:47;7.90;99.90
39825;DHT22;25503;52.532;13.640;2023-05-18T00:50:13;8.00;99.90
39825;DHT22;25503;52.532;13.640;2023-05-18T00:52:39;7.90;99.90
39825;DHT22;25503;52.532;13.640;2023-05-18T00:55:05;7.90;99.90
39825;DHT22;25503;52.532;13.640;2023-05-18T00:57:33;7.80;99.90
39825;DHT22;25503;52.532;13.640;2023-05-18T01:00:01;7.80;99.90
39825;DHT22;25503;52.532;13.640;2023-05-18T01:02:28;7.80;99.90
39825;DHT22;25503;52.532;13.640;2023-05-18T01:04:54;7.70;99.90
39825;DHT22;25503;52.532;13.640;2023-05-18T01:07:20;7.70;99.90
39825;DHT22;25503;52.532;13.640;2023-05-18T01:09:51;7.70;99.90
39825;DHT22;25503;52.532;13.640;2023-05-18T01:12:23;7.60;99.90
39825;DHT22;25503;52.532;13.640;2023-05-18T01:15:12;7.60;99.90
39825;DHT22;25503;52.532;13.640;2023-05-18T01:17:50;7.60;99.90
39825;DHT22;25503;52.532;13.640;2023-05-18T01:20:30;7.60;99.90
39825;DHT22;25503;52.532;13.640;2023-05-18T01:28:14;7.60;99.90
39825;DHT22;25503;52.532;13.640;2023-05-18T01:30:42;7.50;99.90
39825;DHT22;25503;52.532;13.640;2023-05-18T01:33:12;7.50;99.90
39825;DHT22;25503;52.532;13.640;2023-05-18T01:35:39;7.50;99.90
39825;DHT22;25503;52.532;13.640;2023-05-18T01:38:19;7.50;99.90
39825;DHT22;25503;52.532;13.640;2023-05-18T01:41:13;7.50;99.90
39825;DHT22;25503;52.532;13.640;2023-05-18T01:51:49;7.50;99.90
39825;DHT22;25503;52.532;13.640;2023-05-18T01:54:18;7.50;99.90
39825;DHT22;25503;52.532;13.640;2023-05-18T01:56:46;7.60;99.90
39825;DHT22;25503;52.532;13.640;2023-05-18T01:59:14;7.60;99.90
39825;DHT22;25503;52.532;13.640;2023-05-18T02:01:40;7.50;99.90
39825;DHT22;25503;52.532;13.640;2023-05-18T02:04:09;7.50;99.90
39825;DHT22;25503;52.532;13.640;2023-05-18T02:06:35;7.50;99.90
39825;DHT22;25503;52.532;13.640;2023-05-18T02:09:04;7.50;99.90
39825;DHT22;25503;52.532;13.640;2023-05-18T02:11:29;7.50;99.90
39825;DHT22;25503;52.532;13.640;2023-05-18T02:13:55;7.50;99.90
39825;DHT22;25503;52.532;13.640;2023-05-18T02:16:23;7.50;99.90
39825;DHT22;25503;52.532;13.640;2023-05-18T02:18:49;7.50;99.90
39825;DHT22;25503;52.532;13.640;2023-05-18T02:21:14;7.40;99.90
39825;DHT22;25503;52.532;13.640;2023-05-18T02:23:40;7.40;99.90
39825;DHT22;25503;52.532;13.640;2023-05-18T02:26:06;7.40;99.90
39825;DHT22;25503;52.532;13.640;2023-05-18T02:28:31;7.30;99.90
39825;DHT22;25503;52.532;13.640;2023-05-18T02:31:08;7.40;99.90
39825;DHT22;25503;52.532;13.640;2023-05-18T02:33:34;7.30;99.90
39825;DHT22;25503;52.532;13.640;2023-05-18T02:36:09;7.30;99.90
39825;DHT22;25503;52.532;13.640;2023-05-18T02:38:37;7.30;99.90
39825;DHT22;25503;52.532;13.640;2023-05-18T02:41:03;7.30;99.90
39825;DHT22;25503;52.532;13.640;2023-05-18T02:43:29;7.20;99.90
39825;DHT22;25503;52.532;13.640;2023-05-18T02:45:55;7.10;99.90
39825;DHT22;25503;52.532;13.640;2023-05-18T02:48:21;7.10;99.90
39825;DHT22;25503;52.532;13.640;2023-05-18T02:50:49;7.00;99.90
39825;DHT22;25503;52.532;13.640;2023-05-18T02:53:15;7.00;99.90
39825;DHT22;25503;52.532;13.640;2023-05-18T02:55:41;7.00;99.90
39825;DHT22;25503;52.532;13.640;2023-05-18T02:58:08;7.00;99.90
39825;DHT22;25503;52.532;13.640;2023-05-18T03:00:34;7.00;99.90
39825;DHT22;25503;52.532;13.640;2023-05-18T03:03:00;7.00;99.90
39825;DHT22;25503;52.532;13.640;2023-05-18T03:05:27;7.00;99.90
39825;DHT22;25503;52.532;13.640;2023-05-18T03:07:53;6.90;99.90
39825;DHT22;25503;52.532;13.640;2023-05-18T03:10:19;6.90;99.90
39825;DHT22;25503;52.532;13.640;2023-05-18T03:12:46;6.90;99.90
39825;DHT22;25503;52.532;13.640;2023-05-18T03:15:12;6.90;99.90
39825;DHT22;25503;52.532;13.640;2023-05-18T03:17:39;6.90;99.90
39825;DHT22;25503;52.532;13.640;2023-05-18T03:20:06;6.90;99.90
39825;DHT22;25503;52.532;13.640;2023-05-18T03:22:32;6.80;99.90
39825;DHT22;25503;52.532;13.640;2023-05-18T03:24:58;6.80;99.90
39825;DHT22;25503;52.532;13.640;2023-05-18T03:27:23;6.80;99.90
39825;DHT22;25503;52.532;13.640;2023-05-18T03:29:51;6.80;99.90
39825;DHT22;25503;52.532;13.640;2023-05-18T03:32:22;6.80;99.90
39825;DHT22;25503;52.532;13.640;2023-05-18T03:34:49;6.80;99.90
39825;DHT22;25503;52.532;13.640;2023-05-18T03:37:16;6.80;99.90
39825;DHT22;25503;52.532;13.640;2023-05-18T03:39:42;6.80;99.90
39825;DHT22;25503;52.532;13.640;2023-05-18T03:42:07;6.80;99.90
39825;DHT22;25503;52.532;13.640;2023-05-18T03:44:33;6.80;99.90
39825;DHT22;25503;52.532;13.640;2023-05-18T03:46:59;6.70;99.90
39825;DHT22;25503;52.532;13.640;2023-05-18T03:49:24;6.70;99.90
39825;DHT22;25503;52.532;13.640;2023-05-18T03:51:50;6.70;99.90
39825;DHT22;25503;52.532;13.640;2023-05-18T03:54:18;6.60;99.90
39825;DHT22;25503;52.532;13.640;2023-05-18T03:56:45;6.60;99.90
39825;DHT22;25503;52.532;13.640;2023-05-18T03:59:11;6.50;99.90
39825;DHT22;25503;52.532;13.640;2023-05-18T04:01:37;6.40;99.90
39825;DHT22;25503;52.532;13.640;2023-05-18T04:04:06;6.40;99.90
39825;DHT22;25503;52.532;13.640;2023-05-18T04:06:32;6.40;99.90
39825;DHT22;25503;52.532;13.640;2023-05-18T04:09:00;6.40;99.90
39825;DHT22;25503;52.532;13.640;2023-05-18T04:11:29;6.40;99.90
39825;DHT22;25503;52.532;13.640;2023-05-18T04:13:55;6.40;99.90
39825;DHT22;25503;52.532;13.640;2023-05-18T04:16:22;6.40;99.90
39825;DHT22;25503;52.532;13.640;2023-05-18T04:18:48;6.50;99.90
39825;DHT22;25503;52.532;13.640;2023-05-18T04:21:13;6.50;99.90
39825;DHT22;25503;52.532;13.640;2023-05-18T04:23:40;6.60;99.90
39825;DHT22;25503;52.532;13.640;2023-05-18T04:26:06;6.60;99.90
39825;DHT22;25503;52.532;13.640;2023-05-18T04:28:33;6.60;99.90
39825;DHT22;25503;52.532;13.640;2023-05-18T04:30:59;6.70;99.90
39825;DHT22;25503;52.532;13.640;2023-05-18T04:33:27;6.70;99.90
39825;DHT22;25503;52.532;13.640;2023-05-18T04:35:52;6.80;99.90
39825;DHT22;25503;52.532;13.640;2023-05-18T04:38:23;6.90;99.90
39825;DHT22;25503;52.532;13.640;2023-05-18T04:40:50;6.90;99.90
39825;DHT22;25503;52.532;13.640;2023-05-18T04:43:16;7.00;99.90
39825;DHT22;25503;52.532;13.640;2023-05-18T04:45:43;7.00;99.90
39825;DHT22;25503;52.532;13.640;2023-05-18T04:48:15;7.10;99.90
39825;DHT22;25503;52.532;13.640;2023-05-18T04:50:42;7.20;99.90
39825;DHT22;25503;52.532;13.640;2023-05-18T04:53:08;7.30;99.90
39825;DHT22;25503;52.532;13.640;2023-05-18T04:55:36;7.40;99.90
39825;DHT22;25503;52.532;13.640;2023-05-18T04:58:02;7.40;99.90
39825;DHT22;25503;52.532;13.640;2023-05-18T05:00:28;7.50;99.90
39825;DHT22;25503;52.532;13.640;2023-05-18T05:02:55;7.60;99.90
39825;DHT22;25503;52.532;13.640;2023-05-18T05:05:21;7.70;99.90
39825;DHT22;25503;52.532;13.640;2023-05-18T05:07:54;7.80;99.90
39825;DHT22;25503;52.532;13.640;2023-05-18T05:10:20;7.90;99.90
39825;DHT22;25503;52.532;13.640;2023-05-18T05:12:50;8.00;99.90
39825;DHT22;25503;52.532;13.640;2023-05-18T05:15:17;8.10;99.90
39825;DHT22;25503;52.532;13.640;2023-05-18T05:17:43;8.20;99.90
39825;DHT22;25503;52.532;13.640;2023-05-18T05:20:08;8.30;99.90
39825;DHT22;25503;52.532;13.640;2023-05-18T05:22:34;8.40;99.90
39825;DHT22;25503;52.532;13.640;2023-05-18T05:25:00;8.50;99.90
39825;DHT22;25503;52.532;13.640;2023-05-18T05:27:25;8.60;99.90
39825;DHT22;25503;52.532;13.640;2023-05-18T05:29:51;8.70;99.90
39825;DHT22;25503;52.532;13.640;2023-05-18T05:32:16;8.80;99.90
39825;DHT22;25503;52.532;13.640;2023-05-18T05:34:42;8.90;99.90
39825;DHT22;25503;52.532;13.640;2023-05-18T05:37:11;9.00;99.90
39825;DHT22;25503;52.532;13.640;2023-05-18T05:39:37;9.10;99.90
39825;DHT22;25503;52.532;13.640;2023-05-18T05:42:04;9.20;99.90
39825;DHT22;25503;52.532;13.640;2023-05-18T05:44:30;9.20;99.90
39825;DHT22;25503;52.532;13.640;2023-05-18T05:46:55;9.30;99.90
39825;DHT22;25503;52.532;13.640;2023-05-18T05:49:21;9.40;99.90
39825;DHT22;25503;52.532;13.640;2023-05-18T05:51:47;9.50;99.90
39825;DHT22;25503;52.532;13.640;2023-05-18T05:54:13;9.60;99.90
39825;DHT22;25503;52.532;13.640;2023-05-18T05:56:39;9.70;99.90
39825;DHT22;25503;52.532;13.640;2023-05-18T05:59:04;9.90;99.90
39825;DHT22;25503;52.532;13.640;2023-05-18T06:01:30;10.00;99.90
39825;DHT22;25503;52.532;13.640;2023-05-18T06:03:57;10.00;99.90
39825;DHT22;25503;52.532;13.640;2023-05-18T06:06:22;10.10;99.90
39825;DHT22;25503;52.532;13.640;2023-05-18T06:08:48;10.20;99.90
39825;DHT22;25503;52.532;13.640;2023-05-18T06:11:13;10.20;99.90
39825;DHT22;25503;52.532;13.640;2023-05-18T06:13:39;10.30;99.90
39825;DHT22;25503;52.532;13.640;2023-05-18T06:16:05;10.40;99.90
39825;DHT22;25503;52.532;13.640;2023-05-18T06:18:30;10.40;99.90
39825;DHT22;25503;52.532;13.640;2023-05-18T06:20:56;10.50;99.90
39825;DHT22;25503;52.532;13.640;2023-05-18T06:23:22;10.60;99.90
39825;DHT22;25503;52.532;13.640;2023-05-18T06:25:48;10.70;99.90
39825;DHT22;25503;52.532;13.640;2023-05-18T06:28:15;10.70;99.90
39825;DHT22;25503;52.532;13.640;2023-05-18T06:30:41;10.80;99.90
39825;DHT22;25503;52.532;13.640;2023-05-18T06:33:06;10.90;99.90
39825;DHT22;25503;52.532;13.640;2023-05-18T06:35:33;11.00;99.90
39825;DHT22;25503;52.532;13.640;2023-05-18T06:37:58;11.10;99.90
39825;DHT22;25503;52.532;13.640;2023-05-18T06:40:24;11.10;99.90
39825;DHT22;25503;52.532;13.640;2023-05-18T06:42:50;11.10;99.90
39825;DHT22;25503;52.532;13.640;2023-05-18T06:45:16;11.20;99.90
39825;DHT22;25503;52.532;13.640;2023-05-18T06:47:42;11.20;99.90
39825;DHT22;25503;52.532;13.640;2023-05-18T06:50:08;11.30;99.90
39825;DHT22;25503;52.532;13.640;2023-05-18T06:52:34;11.30;99.90
39825;DHT22;25503;52.532;13.640;2023-05-18T06:55:00;11.40;99.90
39825;DHT22;25503;52.532;13.640;2023-05-18T06:57:26;11.40;99.90
39825;DHT22;25503;52.532;13.640;2023-05-18T06:59:51;11.50;99.90
39825;DHT22;25503;52.532;13.640;2023-05-18T07:02:21;11.60;99.90
39825;DHT22;25503;52.532;13.640;2023-05-18T07:04:47;11.70;99.90
39825;DHT22;25503;52.532;13.640;2023-05-18T07:07:14;11.80;99.90
39825;DHT22;25503;52.532;13.640;2023-05-18T07:09:39;11.90;99.90
39825;DHT22;25503;52.532;13.640;2023-05-18T07:12:10;12.00;99.90
39825;DHT22;25503;52.532;13.640;2023-05-18T07:14:36;12.00;99.90
39825;DHT22;25503;52.532;13.640;2023-05-18T07:17:02;12.10;99.90
39825;DHT22;25503;52.532;13.640;2023-05-18T07:19:28;12.20;99.90
39825;DHT22;25503;52.532;13.640;2023-05-18T07:21:54;12.30;99.90
39825;DHT22;25503;52.532;13.640;2023-05-18T07:24:21;12.50;99.90
39825;DHT22;25503;52.532;13.640;2023-05-18T07:26:46;12.60;99.90
39825;DHT22;25503;52.532;13.640;2023-05-18T07:29:12;12.70;99.90
39825;DHT22;25503;52.532;13.640;2023-05-18T07:31:38;12.70;99.90
39825;DHT22;25503;52.532;13.640;2023-05-18T07:34:05;12.80;99.90
39825;DHT22;25503;52.532;13.640;2023-05-18T07:36:31;12.80;99.90
39825;DHT22;25503;52.532;13.640;2023-05-18T07:38:57;12.90;99.90
39825;DHT22;25503;52.532;13.640;2023-05-18T07:41:24;12.90;99.90
39825;DHT22;25503;52.532;13.640;2023-05-18T07:43:50;12.90;99.90
39825;DHT22;25503;52.532;13.640;2023-05-18T07:46:16;13.00;99.90
39825;DHT22;25503;52.532;13.640;2023-05-18T07:48:42;13.00;99.90
39825;DHT22;25503;52.532;13.640;2023-05-18T07:51:09;13.10;99.90
39825;DHT22;25503;52.532;13.640;2023-05-18T07:53:37;13.20;99.90
39825;DHT22;25503;52.532;13.640;2023-05-18T07:56:04;13.40;99.90
39825;DHT22;25503;52.532;13.640;2023-05-18T07:58:29;13.50;99.90
39825;DHT22;25503;52.532;13.640;2023-05-18T08:00:55;13.60;99.90
39825;DHT22;25503;52.532;13.640;2023-05-18T08:03:21;13.60;99.90
39825;DHT22;25503;52.532;13.640;2023-05-18T08:05:46;13.60;99.90
39825;DHT22;25503;52.532;13.640;2023-05-18T08:08:12;13.70;99.90
39825;DHT22;25503;52.532;13.640;2023-05-18T08:10:40;13.70;99.90
39825;DHT22;25503;52.532;13.640;2023-05-18T08:13:05;13.80;99.90
39825;DHT22;25503;52.532;13.640;2023-05-18T08:15:31;13.70;99.90
39825;DHT22;25503;52.532;13.640;2023-05-18T08:17:56;13.70;99.90
39825;DHT22;25503;52.532;13.640;2023-05-18T08:20:22;13.70;99.90
39825;DHT22;25503;52.532;13.640;2023-05-18T08:22:49;13.80;99.90
39825;DHT22;25503;52.532;13.640;2023-05-18T08:25:15;13.90;99.90
39825;DHT22;25503;52.532;13.640;2023-05-18T08:27:41;14.00;99.90
39825;DHT22;25503;52.532;13.640;2023-05-18T08:30:07;14.20;99.90
39825;DHT22;25503;52.532;13.640;2023-05-18T08:35:44;14.50;99.90
39825;DHT22;25503;52.532;13.640;2023-05-18T08:38:12;14.60;99.90
39825;DHT22;25503;52.532;13.640;2023-05-18T08:41:14;14.70;99.90
39825;DHT22;25503;52.532;13.640;2023-05-18T08:43:45;14.80;99.90
39825;DHT22;25503;52.532;13.640;2023-05-18T08:46:19;15.00;99.90
39825;DHT22;25503;52.532;13.640;2023-05-18T08:48:48;15.10;99.90
39825;DHT22;25503;52.532;13.640;2023-05-18T08:51:18;15.20;99.90
39825;DHT22;25503;52.532;13.640;2023-05-18T08:53:45;15.20;99.90
39825;DHT22;25503;52.532;13.640;2023-05-18T08:56:16;15.30;99.90
39825;DHT22;25503;52.532;13.640;2023-05-18T08:58:48;15.30;99.90
39825;DHT22;25503;52.532;13.640;2023-05-18T09:01:15;15.40;99.90
39825;DHT22;25503;52.532;13.640;2023-05-18T09:03:41;15.60;99.90
39825;DHT22;25503;52.532;13.640;2023-05-18T09:06:06;15.80;99.90
39825;DHT22;25503;52.532;13.640;2023-05-18T09:08:33;15.80;99.90
39825;DHT22;25503;52.532;13.640;2023-05-18T09:11:01;15.90;99.90
39825;DHT22;25503;52.532;13.640;2023-05-18T09:13:27;16.00;99.90
39825;DHT22;25503;52.532;13.640;2023-05-18T09:15:53;15.90;99.90
39825;DHT22;25503;52.532;13.640;2023-05-18T09:18:19;15.90;99.90
39825;DHT22;25503;52.532;13.640;2023-05-18T09:20:45;15.80;99.90
39825;DHT22;25503;52.532;13.640;2023-05-18T09:23:11;15.70;99.90
39825;DHT22;25503;52.532;13.640;2023-05-18T09:25:49;15.60;99.90
39825;DHT22;25503;52.532;13.640;2023-05-18T09:28:31;15.50;99.90
39825;DHT22;25503;52.532;13.640;2023-05-18T09:30:57;15.30;99.90
39825;DHT22;25503;52.532;13.640;2023-05-18T09:33:23;15.20;99.90
39825;DHT22;25503;52.532;13.640;2023-05-18T09:35:49;15.10;99.90
39825;DHT22;25503;52.532;13.640;2023-05-18T09:38:16;15.10;99.90
39825;DHT22;25503;52.532;13.640;2023-05-18T09:40:47;15.00;99.90
39825;DHT22;25503;52.532;13.640;2023-05-18T09:43:13;15.00;99.90
39825;DHT22;25503;52.532;13.640;2023-05-18T09:45:44;15.10;99.90
39825;DHT22;25503;52.532;13.640;2023-05-18T09:48:13;15.20;99.90
39825;DHT22;25503;52.532;13.640;2023-05-18T09:50:39;15.20;99.90
39825;DHT22;25503;52.532;13.640;2023-05-18T09:53:08;15.30;99.90
39825;DHT22;25503;52.532;13.640;2023-05-18T09:55:45;15.40;99.90
39825;DHT22;25503;52.532;13.640;2023-05-18T09:58:11;15.60;99.90
39825;DHT22;25503;52.532;13.640;2023-05-18T10:00:40;15.80;99.90
39825;DHT22;25503;52.532;13.640;2023-05-18T10:03:24;15.90;99.90
39825;DHT22;25503;52.532;13.640;2023-05-18T10:05:50;16.00;99.90
39825;DHT22;25503;52.532;13.640;2023-05-18T10:08:16;16.10;99.90
39825;DHT22;25503;52.532;13.640;2023-05-18T10:10:46;16.20;99.90
39825;DHT22;25503;52.532;13.640;2023-05-18T10:13:17;16.20;99.90
39825;DHT22;25503;52.532;13.640;2023-05-18T10:15:53;16.30;99.90
39825;DHT22;25503;52.532;13.640;2023-05-18T10:18:21;16.50;99.90
39825;DHT22;25503;52.532;13.640;2023-05-18T10:20:48;16.80;99.90
39825;DHT22;25503;52.532;13.640;2023-05-18T10:23:14;16.90;99.90
39825;DHT22;25503;52.532;13.640;2023-05-18T10:25:41;17.20;99.90
39825;DHT22;25503;52.532;13.640;2023-05-18T10:28:09;17.40;99.90
39825;DHT22;25503;52.532;13.640;2023-05-18T10:30:37;17.60;99.90
39825;DHT22;25503;52.532;13.640;2023-05-18T10:33:06;17.70;99.90
39825;DHT22;25503;52.532;13.640;2023-05-18T10:35:32;17.70;99.90
39825;DHT22;25503;52.532;13.640;2023-05-18T10:37:58;17.70;99.90
39825;DHT22;25503;52.532;13.640;2023-05-18T10:40:27;17.60;99.90
39825;DHT22;25503;52.532;13.640;2023-05-18T10:42:55;17.40;99.90
39825;DHT22;25503;52.532;13.640;2023-05-18T10:45:21;17.50;99.90
39825;DHT22;25503;52.532;13.640;2023-05-18T10:47:49;17.60;99.90
39825;DHT22;25503;52.532;13.640;2023-05-18T10:50:21;17.50;99.90
39825;DHT22;25503;52.532;13.640;2023-05-18T10:52:47;17.50;99.90
39825;DHT22;25503;52.532;13.640;2023-05-18T10:55:14;17.40;99.90
39825;DHT22;25503;52.532;13.640;2023-05-18T10:57:45;17.40;99.90
39825;DHT22;25503;52.532;13.640;2023-05-18T11:00:15;17.30;99.90
39825;DHT22;25503;52.532;13.640;2023-05-18T11:02:41;17.10;99.90
39825;DHT22;25503;52.532;13.640;2023-05-18T11:05:08;17.10;99.90
39825;DHT22;25503;52.532;13.640;2023-05-18T11:07:34;17.00;99.90
39825;DHT22;25503;52.532;13.640;2023-05-18T11:10:01;17.00;99.90
39825;DHT22;25503;52.532;13.640;2023-05-18T11:12:27;17.20;99.90
39825;DHT22;25503;52.532;13.640;2023-05-18T11:14:56;17.40;99.90
39825;DHT22;25503;52.532;13.640;2023-05-18T11:17:28;17.60;99.90
39825;DHT22;25503;52.532;13.640;2023-05-18T11:22:45;18.10;99.90
39825;DHT22;25503;52.532;13.640;2023-05-18T11:27:59;18.40;99.90
39825;DHT22;25503;52.532;13.640;2023-05-18T11:35:32;18.30;99.90
39825;DHT22;25503;52.532;13.640;2023-05-18T11:38:08;18.10;99.90
39825;DHT22;25503;52.532;13.640;2023-05-18T11:43:23;18.00;99.90
39825;DHT22;25503;52.532;13.640;2023-05-18T11:45:56;18.20;99.90
39825;DHT22;25503;52.532;13.640;2023-05-18T11:48:26;18.30;99.90
39825;DHT22;25503;52.532;13.640;2023-05-18T11:50:54;18.20;99.90
39825;DHT22;25503;52.532;13.640;2023-05-18T11:53:24;18.10;99.90
39825;DHT22;25503;52.532;13.640;2023-05-18T11:55:53;18.20;99.90
39825;DHT22;25503;52.532;13.640;2023-05-18T11:58:23;18.40;99.90
39825;DHT22;25503;52.532;13.640;2023-05-18T12:00:49;18.60;99.90
39825;DHT22;25503;52.532;13.640;2023-05-18T12:03:15;18.80;99.90
39825;DHT22;25503;52.532;13.640;2023-05-18T12:05:42;19.00;99.90
39825;DHT22;25503;52.532;13.640;2023-05-18T12:08:18;19.20;99.90
39825;DHT22;25503;52.532;13.640;2023-05-18T12:10:44;19.50;99.90
39825;DHT22;25503;52.532;13.640;2023-05-18T12:13:12;19.60;99.90
39825;DHT22;25503;52.532;13.640;2023-05-18T12:15:39;19.50;99.90
39825;DHT22;25503;52.532;13.640;2023-05-18T12:18:04;19.30;99.90
39825;DHT22;25503;52.532;13.640;2023-05-18T12:20:30;18.90;99.90
39825;DHT22;25503;52.532;13.640;2023-05-18T12:22:56;18.70;99.90
39825;DHT22;25503;52.532;13.640;2023-05-18T12:25:24;18.80;99.90
39825;DHT22;25503;52.532;13.640;2023-05-18T12:27:51;18.90;99.90
39825;DHT22;25503;52.532;13.640;2023-05-18T12:30:19;18.90;99.90
39825;DHT22;25503;52.532;13.640;2023-05-18T12:32:53;19.10;99.90
39825;DHT22;25503;52.532;13.640;2023-05-18T12:35:26;19.30;99.90
39825;DHT22;25503;52.532;13.640;2023-05-18T12:37:52;19.40;99.90
39825;DHT22;25503;52.532;13.640;2023-05-18T12:40:20;19.40;99.90
39825;DHT22;25503;52.532;13.640;2023-05-18T12:42:56;19.40;99.90
39825;DHT22;25503;52.532;13.640;2023-05-18T12:45:28;19.40;99.90
39825;DHT22;25503;52.532;13.640;2023-05-18T12:48:06;19.40;99.90
39825;DHT22;25503;52.532;13.640;2023-05-18T12:50:31;19.20;99.90
39825;DHT22;25503;52.532;13.640;2023-05-18T12:52:57;19.10;99.90
39825;DHT22;25503;52.532;13.640;2023-05-18T12:55:23;19.20;99.90
39825;DHT22;25503;52.532;13.640;2023-05-18T12:58:10;19.30;99.90
39825;DHT22;25503;52.532;13.640;2023-05-18T13:00:42;19.40;99.90
39825;DHT22;25503;52.532;13.640;2023-05-18T13:03:15;19.60;99.90
39825;DHT22;25503;52.532;13.640;2023-05-18T13:05:41;19.60;99.90
39825;DHT22;25503;52.532;13.640;2023-05-18T13:08:13;19.40;99.90
39825;DHT22;25503;52.532;13.640;2023-05-18T13:10:42;19.40;99.90
39825;DHT22;25503;52.532;13.640;2023-05-18T13:13:08;19.40;99.90
39825;DHT22;25503;52.532;13.640;2023-05-18T13:15:37;19.30;99.90
39825;DHT22;25503;52.532;13.640;2023-05-18T13:18:07;19.40;99.90
39825;DHT22;25503;52.532;13.640;2023-05-18T13:20:51;19.50;99.90
39825;DHT22;25503;52.532;13.640;2023-05-18T13:23:19;19.50;99.90
39825;DHT22;25503;52.532;13.640;2023-05-18T13:25:45;19.40;99.90
39825;DHT22;25503;52.532;13.640;2023-05-18T13:28:13;19.40;99.90
39825;DHT22;25503;52.532;13.640;2023-05-18T13:30:39;19.20;99.90
39825;DHT22;25503;52.532;13.640;2023-05-18T13:33:07;19.10;99.90
39825;DHT22;25503;52.532;13.640;2023-05-18T13:35:33;19.10;99.90
39825;DHT22;25503;52.532;13.640;2023-05-18T13:37:59;19.00;99.90
39825;DHT22;25503;52.532;13.640;2023-05-18T13:40:25;19.10;99.90
39825;DHT22;25503;52.532;13.640;2023-05-18T13:42:50;19.10;99.90
39825;DHT22;25503;52.532;13.640;2023-05-18T13:45:17;19.10;99.90
39825;DHT22;25503;52.532;13.640;2023-05-18T13:47:43;19.20;99.90
39825;DHT22;25503;52.532;13.640;2023-05-18T13:50:15;19.20;99.90
39825;DHT22;25503;52.532;13.640;2023-05-18T13:52:41;19.10;99.90
39825;DHT22;25503;52.532;13.640;2023-05-18T13:55:07;19.10;99.90
39825;DHT22;25503;52.532;13.640;2023-05-18T13:57:33;19.20;99.90
39825;DHT22;25503;52.532;13.640;2023-05-18T13:59:59;19.40;99.90
39825;DHT22;25503;52.532;13.640;2023-05-18T14:02:35;19.30;99.90
39825;DHT22;25503;52.532;13.640;2023-05-18T14:05:02;19.10;99.90
39825;DHT22;25503;52.532;13.640;2023-05-18T14:07:28;19.10;99.90
39825;DHT22;25503;52.532;13.640;2023-05-18T14:09:54;19.10;99.90
39825;DHT22;25503;52.532;13.640;2023-05-18T14:12:19;19.10;99.90
39825;DHT22;25503;52.532;13.640;2023-05-18T14:14:45;19.10;99.90
39825;DHT22;25503;52.532;13.640;2023-05-18T14:17:11;19.10;99.90
39825;DHT22;25503;52.532;13.640;2023-05-18T14:19:38;19.10;99.90
39825;DHT22;25503;52.532;13.640;2023-05-18T14:22:03;19.10;99.90
39825;DHT22;25503;52.532;13.640;2023-05-18T14:24:29;19.20;99.90
39825;DHT22;25503;52.532;13.640;2023-05-18T14:26:55;19.20;99.90
39825;DHT22;25503;52.532;13.640;2023-05-18T14:29:20;19.10;99.90
39825;DHT22;25503;52.532;13.640;2023-05-18T14:31:46;18.90;99.90
39825;DHT22;25503;52.532;13.640;2023-05-18T14:34:12;18.70;99.90
39825;DHT22;25503;52.532;13.640;2023-05-18T14:36:37;18.60;99.90
39825;DHT22;25503;52.532;13.640;2023-05-18T14:39:03;18.70;99.90
39825;DHT22;25503;52.532;13.640;2023-05-18T14:41:29;18.60;99.90
39825;DHT22;25503;52.532;13.640;2023-05-18T14:43:55;18.70;99.90
39825;DHT22;25503;52.532;13.640;2023-05-18T14:46:20;18.80;99.90
39825;DHT22;25503;52.532;13.640;2023-05-18T14:48:46;18.70;99.90
39825;DHT22;25503;52.532;13.640;2023-05-18T14:51:12;18.60;99.90
39825;DHT22;25503;52.532;13.640;2023-05-18T14:53:38;18.60;99.90
39825;DHT22;25503;52.532;13.640;2023-05-18T14:56:04;18.60;99.90
39825;DHT22;25503;52.532;13.640;2023-05-18T14:58:33;18.50;99.90
39825;DHT22;25503;52.532;13.640;2023-05-18T15:00:58;18.40;99.90
39825;DHT22;25503;52.532;13.640;2023-05-18T15:03:24;18.30;99.90
39825;DHT22;25503;52.532;13.640;2023-05-18T15:05:49;18.20;99.90
39825;DHT22;25503;52.532;13.640;2023-05-18T15:08:15;18.20;99.90
39825;DHT22;25503;52.532;13.640;2023-05-18T15:10:40;18.10;99.90
39825;DHT22;25503;52.532;13.640;2023-05-18T15:13:06;18.10;99.90
39825;DHT22;25503;52.532;13.640;2023-05-18T15:15:32;18.10;99.90
39825;DHT22;25503;52.532;13.640;2023-05-18T15:17:57;18.00;99.90
39825;DHT22;25503;52.532;13.640;2023-05-18T15:20:23;18.00;99.90
39825;DHT22;25503;52.532;13.640;2023-05-18T15:22:49;17.90;99.90
39825;DHT22;25503;52.532;13.640;2023-05-18T15:25:15;17.80;99.90
39825;DHT22;25503;52.532;13.640;2023-05-18T15:27:41;17.70;99.90
39825;DHT22;25503;52.532;13.640;2023-05-18T15:30:07;17.60;99.90
39825;DHT22;25503;52.532;13.640;2023-05-18T15:32:39;17.60;99.90
39825;DHT22;25503;52.532;13.640;2023-05-18T15:35:05;17.60;99.90
39825;DHT22;25503;52.532;13.640;2023-05-18T15:37:32;17.50;99.90
39825;DHT22;25503;52.532;13.640;2023-05-18T15:39:58;17.50;99.90
39825;DHT22;25503;52.532;13.640;2023-05-18T15:42:24;17.50;99.90
39825;DHT22;25503;52.532;13.640;2023-05-18T15:44:49;17.50;99.90
39825;DHT22;25503;52.532;13.640;2023-05-18T15:47:15;17.50;99.90
39825;DHT22;25503;52.532;13.640;2023-05-18T15:49:41;17.50;99.90
39825;DHT22;25503;52.532;13.640;2023-05-18T15:52:07;17.50;99.90
39825;DHT22;25503;52.532;13.640;2023-05-18T15:54:33;17.40;99.90